createdAt,value
2023-02-15T00:00:11.742Z,59.91
2023-02-15T00:02:39.241Z,59.91
2023-02-15T00:05:06.650Z,60.15
2023-02-15T00:07:33.819Z,59.78
2023-02-15T00:10:00.841Z,59.77
2023-02-15T00:12:27.952Z,59.85
2023-02-15T00:14:54.883Z,59.97
2023-02-15T00:17:22.709Z,59.71
2023-02-15T00:19:49.688Z,59.76
2023-02-15T00:22:16.700Z,59.65
2023-02-15T00:24:43.709Z,59.90
2023-02-15T00:27:10.640Z,59.95
2023-02-15T00:29:37.618Z,60.16
2023-02-15T00:32:05.149Z,59.87
2023-02-15T00:34:32.129Z,60.26
2023-02-15T00:36:59.168Z,60.58
2023-02-15T00:39:26.700Z,60.63
2023-02-15T00:41:53.660Z,60.74
2023-02-15T00:44:20.649Z,60.96
2023-02-15T00:46:47.620Z,61.23
2023-02-15T00:49:14.672Z,61.03
2023-02-15T00:51:41.725Z,60.88
2023-02-15T00:54:08.943Z,60.43
2023-02-15T00:56:35.924Z,60.81
2023-02-15T00:59:04.309Z,60.73
2023-02-15T01:01:31.409Z,60.70
2023-02-15T01:03:58.529Z,60.78
2023-02-15T01:06:25.618Z,61.23
2023-02-15T01:08:52.771Z,61.26
2023-02-15T01:11:24.992Z,61.64
2023-02-15T01:13:54.128Z,61.58
2023-02-15T01:16:22.054Z,61.60
2023-02-15T01:18:49.411Z,61.74
2023-02-15T01:21:22.125Z,61.61
2023-02-15T01:23:49.439Z,61.50
2023-02-15T01:26:17.070Z,61.75
2023-02-15T01:28:44.682Z,61.72
2023-02-15T01:31:22.687Z,61.64
2023-02-15T01:33:49.863Z,62.02
2023-02-15T01:36:18.614Z,61.77
2023-02-15T01:38:45.957Z,61.40
2023-02-15T01:41:23.466Z,61.55
2023-02-15T01:43:59.441Z,61.40
2023-02-15T01:46:39.265Z,61.59
2023-02-15T01:49:18.121Z,61.08
2023-02-15T01:51:47.090Z,61.23
2023-02-15T01:54:22.895Z,61.10
2023-02-15T01:56:50.156Z,61.10
2023-02-15T01:59:21.877Z,61.62
2023-02-15T02:01:51.682Z,61.19
2023-02-15T02:04:32.854Z,61.44
2023-02-15T02:07:00.893Z,61.48
2023-02-15T02:09:28.239Z,61.75
2023-02-15T02:11:55.642Z,61.25
2023-02-15T02:14:24.159Z,61.52
2023-02-15T02:16:57.180Z,61.27
2023-02-15T02:19:42.086Z,60.85
2023-02-15T02:22:19.054Z,60.49
2023-02-15T02:25:01.941Z,60.49
2023-02-15T02:27:40.539Z,60.61
2023-02-15T02:30:29.507Z,60.41
2023-02-15T02:33:02.471Z,60.30
2023-02-15T02:35:37.510Z,60.19
2023-02-15T02:38:28.557Z,60.17
2023-02-15T02:41:30.939Z,59.88
2023-02-15T02:44:06.820Z,59.81
2023-02-15T02:46:40.631Z,59.90
2023-02-15T02:49:07.729Z,59.78
2023-02-15T02:51:34.599Z,59.72
2023-02-15T02:54:06.945Z,59.70
2023-02-15T02:56:50.513Z,59.19
2023-02-15T02:59:24.690Z,59.11
2023-02-15T03:02:14.122Z,59.43
2023-02-15T03:04:46.757Z,59.34
2023-02-15T03:07:23.241Z,59.13
2023-02-15T03:09:53.390Z,59.33
2023-02-15T03:12:29.417Z,59.61
2023-02-15T03:15:06.355Z,59.28
2023-02-15T03:17:36.788Z,59.15
2023-02-15T03:20:11.035Z,59.40
2023-02-15T03:22:49.495Z,59.18
2023-02-15T03:25:42.973Z,59.42
2023-02-15T03:28:16.713Z,59.39
2023-02-15T03:30:47.123Z,59.05
2023-02-15T03:33:15.540Z,59.19
2023-02-15T03:35:50.845Z,59.29
2023-02-15T03:38:26.919Z,59.30
2023-02-15T03:41:12.518Z,59.52
2023-02-15T03:43:45.310Z,59.12
2023-02-15T03:46:35.916Z,59.29
2023-02-15T03:49:08.705Z,59.53
2023-02-15T03:51:40.515Z,59.39
2023-02-15T03:54:14.495Z,59.40
2023-02-15T03:57:03.415Z,59.37
2023-02-15T03:59:49.235Z,59.71
2023-02-15T04:02:23.839Z,59.43
2023-02-15T04:04:50.959Z,59.43
2023-02-15T04:07:17.894Z,59.60
2023-02-15T04:10:03.495Z,59.40
2023-02-15T04:12:30.415Z,59.83
2023-02-15T04:15:16.136Z,59.91
2023-02-15T04:17:43.052Z,59.72
2023-02-15T04:20:28.797Z,60.18
2023-02-15T04:23:14.675Z,59.84
2023-02-15T04:25:41.651Z,59.90
2023-02-15T04:28:08.933Z,59.62
2023-02-15T04:30:35.987Z,59.61
2023-02-15T04:33:02.931Z,59.26
2023-02-15T04:35:29.879Z,59.21
2023-02-15T04:37:57.038Z,59.15
2023-02-15T04:40:24.001Z,59.48
2023-02-15T04:42:51.045Z,59.47
2023-02-15T04:45:18.777Z,59.77
2023-02-15T04:47:46.060Z,59.89
2023-02-15T04:50:13.133Z,59.98
2023-02-15T04:52:40.247Z,59.73
2023-02-15T04:55:07.789Z,59.64
2023-02-15T04:57:34.805Z,59.89
2023-02-15T05:00:01.841Z,59.84
2023-02-15T05:02:28.871Z,60.45
2023-02-15T05:04:55.797Z,59.75
2023-02-15T05:07:22.820Z,59.72
2023-02-15T05:09:49.966Z,59.57
2023-02-15T05:12:17.013Z,59.65
2023-02-15T05:14:44.018Z,59.62
2023-02-15T05:17:10.950Z,59.19
2023-02-15T05:19:37.918Z,59.31
2023-02-15T05:22:05.031Z,59.51
2023-02-15T05:24:50.678Z,59.89
2023-02-15T05:27:36.452Z,60.01
2023-02-15T05:30:03.972Z,59.74
2023-02-15T05:32:31.254Z,59.49
2023-02-15T05:34:58.616Z,59.31
2023-02-15T05:37:25.596Z,59.16
2023-02-15T05:39:52.682Z,59.40
2023-02-15T05:42:19.679Z,59.11
2023-02-15T05:44:46.647Z,59.43
2023-02-15T05:47:13.675Z,59.43
2023-02-15T05:49:40.698Z,59.43
2023-02-15T05:52:07.805Z,59.30
2023-02-15T05:54:34.941Z,59.16
2023-02-15T05:57:01.938Z,59.40
2023-02-15T05:59:28.947Z,59.30
2023-02-15T06:01:56.118Z,59.09
2023-02-15T06:04:23.082Z,59.13
2023-02-15T06:06:50.130Z,59.34
2023-02-15T06:09:19.522Z,58.98
2023-02-15T06:11:46.850Z,58.83
2023-02-15T06:14:13.959Z,59.38
2023-02-15T06:16:40.941Z,59.55
2023-02-15T06:19:08.047Z,59.29
2023-02-15T06:21:35.805Z,59.37
2023-02-15T06:24:02.955Z,60.95
2023-02-15T06:26:30.191Z,60.53
2023-02-15T06:28:57.279Z,60.15
2023-02-15T06:31:24.493Z,59.65
2023-02-15T06:33:51.582Z,59.19
2023-02-15T06:36:18.600Z,59.11
2023-02-15T06:38:45.689Z,58.75
2023-02-15T06:41:12.644Z,58.41
2023-02-15T06:43:41.041Z,58.06
2023-02-15T06:46:08.319Z,57.86
2023-02-15T06:48:35.285Z,58.08
2023-02-15T06:51:02.426Z,57.54
2023-02-15T06:53:29.541Z,57.30
2023-02-15T06:56:10.358Z,57.86
2023-02-15T06:58:41.360Z,57.69
2023-02-15T07:01:09.847Z,57.83
2023-02-15T07:03:48.994Z,57.95
2023-02-15T07:06:32.240Z,57.81
2023-02-15T07:09:17.605Z,57.95
2023-02-15T07:12:24.907Z,58.37
2023-02-15T07:15:12.675Z,58.48
2023-02-15T07:17:58.778Z,58.57
2023-02-15T07:20:42.301Z,59.17
2023-02-15T07:23:25.278Z,58.78
2023-02-15T07:26:15.083Z,58.65
2023-02-15T07:28:56.890Z,58.72
2023-02-15T07:31:41.338Z,58.46
2023-02-15T07:34:25.124Z,58.51
2023-02-15T07:37:18.664Z,58.37
2023-02-15T07:40:00.152Z,58.42
2023-02-15T07:42:53.137Z,58.05
2023-02-15T07:45:36.945Z,58.19
2023-02-15T07:48:18.423Z,57.90
2023-02-15T07:50:57.483Z,57.94
2023-02-15T07:53:39.786Z,58.04
2023-02-15T07:56:26.926Z,57.54
2023-02-15T07:59:09.879Z,57.71
2023-02-15T08:01:58.087Z,57.98
2023-02-15T08:04:37.852Z,57.90
2023-02-15T08:07:17.305Z,57.35
2023-02-15T08:09:58.183Z,57.41
2023-02-15T08:12:40.996Z,57.12
2023-02-15T08:15:20.243Z,56.92
2023-02-15T08:18:00.745Z,57.30
2023-02-15T08:20:48.979Z,57.02
2023-02-15T08:23:29.116Z,56.45
2023-02-15T08:26:14.466Z,56.22
2023-02-15T08:29:00.718Z,56.59
2023-02-15T08:31:41.866Z,56.88
2023-02-15T08:34:28.526Z,57.17
2023-02-15T08:37:07.523Z,57.08
2023-02-15T08:39:46.454Z,56.52
2023-02-15T08:42:27.425Z,56.23
2023-02-15T08:45:07.185Z,55.68
2023-02-15T08:47:45.005Z,56.14
2023-02-15T08:50:21.954Z,56.51
2023-02-15T08:53:00.041Z,56.63
2023-02-15T08:55:40.196Z,56.62
2023-02-15T08:58:20.943Z,55.83
2023-02-15T09:00:59.510Z,55.92
2023-02-15T09:03:41.750Z,55.60
2023-02-15T09:06:23.500Z,55.75
2023-02-15T09:09:03.585Z,55.41
2023-02-15T09:11:59.373Z,54.86
2023-02-15T09:14:46.754Z,54.77
2023-02-15T09:17:25.930Z,54.84
2023-02-15T09:20:16.691Z,54.22
2023-02-15T09:22:59.070Z,53.94
2023-02-15T09:25:40.760Z,53.85
2023-02-15T09:28:32.039Z,53.85
2023-02-15T09:31:37.873Z,54.01
2023-02-15T09:34:23.750Z,54.18
2023-02-15T09:37:04.942Z,53.72
2023-02-15T09:39:49.003Z,53.40
2023-02-15T09:42:45.287Z,53.31
2023-02-15T09:45:37.533Z,52.58
2023-02-15T09:48:41.966Z,51.74
2023-02-15T09:51:33.173Z,51.70
2023-02-15T09:54:35.256Z,51.98
2023-02-15T09:57:39.159Z,50.92
2023-02-15T10:00:37.246Z,50.84
2023-02-15T10:03:23.279Z,50.60
2023-02-15T10:06:30.678Z,49.39
2023-02-15T10:09:50.548Z,49.35
2023-02-15T10:12:55.891Z,48.95
2023-02-15T10:15:53.472Z,47.45
2023-02-15T10:19:00.590Z,48.20
2023-02-15T10:21:47.989Z,46.83
2023-02-15T10:25:06.922Z,46.58
2023-02-15T10:27:55.794Z,45.74
2023-02-15T10:30:49.783Z,46.01
2023-02-15T10:33:36.102Z,46.11
2023-02-15T10:36:35.051Z,46.34
2023-02-15T10:39:27.613Z,46.17
2023-02-15T10:42:26.417Z,45.40
2023-02-15T10:45:21.021Z,45.00
2023-02-15T10:48:26.303Z,45.07
2023-02-15T10:51:15.919Z,44.62
2023-02-15T10:54:19.778Z,43.92
2023-02-15T10:57:26.609Z,43.62
2023-02-15T11:00:25.387Z,43.77
2023-02-15T11:03:46.038Z,43.81
2023-02-15T11:06:36.888Z,43.22
2023-02-15T11:09:27.280Z,43.29
2023-02-15T11:12:09.753Z,42.50
2023-02-15T11:15:16.063Z,42.79
2023-02-15T11:18:05.649Z,42.23
2023-02-15T11:20:55.165Z,42.15
2023-02-15T11:23:34.229Z,42.25
2023-02-15T11:26:26.550Z,42.58
2023-02-15T11:29:17.350Z,42.69
2023-02-15T11:32:02.488Z,42.23
2023-02-15T11:35:14.801Z,41.80
2023-02-15T11:38:24.890Z,41.70
2023-02-15T11:41:27.880Z,40.90
2023-02-15T11:44:23.548Z,40.65
2023-02-15T11:47:02.393Z,41.54
2023-02-15T11:49:46.731Z,41.04
2023-02-15T11:52:31.751Z,41.00
2023-02-15T11:55:26.830Z,40.98
2023-02-15T11:58:19.413Z,40.78
2023-02-15T12:13:44.574Z,41.11
2023-02-15T12:16:30.044Z,41.45
2023-02-15T12:19:16.479Z,41.44
2023-02-15T12:22:02.697Z,41.09
2023-02-15T12:24:51.285Z,40.43
2023-02-15T12:27:42.998Z,39.81
2023-02-15T12:30:47.009Z,39.03
2023-02-15T12:33:37.130Z,38.43
2023-02-15T12:36:31.414Z,38.64
2023-02-15T12:39:32.949Z,38.07
2023-02-15T12:42:27.831Z,37.48
2023-02-15T12:45:19.149Z,37.51
2023-02-15T12:48:25.418Z,36.43
2023-02-15T12:51:19.928Z,36.38
2023-02-15T12:54:03.938Z,35.80
2023-02-15T12:56:45.230Z,35.09
2023-02-15T12:59:28.490Z,35.22
2023-02-15T13:02:12.207Z,34.78
2023-02-15T13:04:59.964Z,34.38
2023-02-15T13:07:43.352Z,34.13
2023-02-15T13:10:46.302Z,33.56
2023-02-15T13:13:43.316Z,34.27
2023-02-15T13:16:15.240Z,35.20
2023-02-15T13:18:51.638Z,35.20
2023-02-15T13:21:42.187Z,33.31
2023-02-15T13:24:40.218Z,31.82
2023-02-15T13:27:24.852Z,30.84
2023-02-15T13:30:02.814Z,29.59
2023-02-15T13:32:47.003Z,27.93
2023-02-15T13:35:23.235Z,27.32
2023-02-15T13:38:13.993Z,26.35
2023-02-15T13:41:01.758Z,25.99
2023-02-15T13:43:54.661Z,24.76
2023-02-15T13:46:48.033Z,24.71
2023-02-15T13:49:31.101Z,24.08
2023-02-15T13:52:35.491Z,23.82
2023-02-15T13:55:11.232Z,23.74
2023-02-15T13:58:00.241Z,23.88
2023-02-15T14:01:06.143Z,23.38
2023-02-15T14:04:09.581Z,23.07
2023-02-15T14:06:50.606Z,23.19
2023-02-15T14:09:54.936Z,24.02
2023-02-15T14:12:52.322Z,25.11
2023-02-15T14:15:39.189Z,26.94
2023-02-15T14:18:28.737Z,28.56
2023-02-15T14:21:06.344Z,30.89
2023-02-15T14:24:17.257Z,32.60
2023-02-15T14:27:02.007Z,33.38
2023-02-15T14:29:36.482Z,35.43
2023-02-15T14:32:25.781Z,36.60
2023-02-15T14:35:05.743Z,37.49
2023-02-15T14:37:54.151Z,38.45
2023-02-15T14:41:08.283Z,40.00
2023-02-15T14:43:57.764Z,40.52
2023-02-15T14:47:01.454Z,42.35
2023-02-15T14:49:43.419Z,41.79
2023-02-15T14:52:18.024Z,42.09
2023-02-15T14:54:52.356Z,42.44
2023-02-15T14:57:31.159Z,43.03
2023-02-15T15:00:12.685Z,43.29
2023-02-15T15:03:03.710Z,43.70
2023-02-15T15:05:52.296Z,44.99
2023-02-15T15:08:40.201Z,45.01
2023-02-15T15:11:44.724Z,45.74
2023-02-15T15:14:40.620Z,46.73
2023-02-15T15:17:18.258Z,46.67
2023-02-15T15:19:57.549Z,47.21
2023-02-15T15:22:34.213Z,47.95
2023-02-15T15:28:04.339Z,47.88
2023-02-15T15:30:42.114Z,48.19
2023-02-15T15:33:37.268Z,48.38
2023-02-15T15:36:35.920Z,49.03
2023-02-15T15:39:43.523Z,48.95
2023-02-15T15:42:33.515Z,49.43
2023-02-15T15:45:14.321Z,49.48
2023-02-15T15:48:07.412Z,50.20
2023-02-15T15:50:47.005Z,50.05
2023-02-15T15:53:28.983Z,50.61
2023-02-15T15:56:08.954Z,50.47
2023-02-15T15:58:48.898Z,49.74
2023-02-15T16:01:43.731Z,49.97
2023-02-15T16:04:31.978Z,51.01
2023-02-15T16:07:25.271Z,51.07
2023-02-15T16:10:06.673Z,51.08
2023-02-15T16:12:45.696Z,51.36
2023-02-15T16:15:55.469Z,51.01
2023-02-15T16:18:34.561Z,51.26
2023-02-15T16:21:09.945Z,51.36
2023-02-15T16:24:14.607Z,51.35
2023-02-15T16:27:00.298Z,51.58
2023-02-15T16:29:41.388Z,51.76
2023-02-15T16:32:26.026Z,51.81
2023-02-15T16:35:07.676Z,51.94
2023-02-15T16:37:41.055Z,51.86
2023-02-15T16:40:53.769Z,51.78
2023-02-15T16:43:38.373Z,51.75
2023-02-15T16:46:34.490Z,52.10
2023-02-15T16:49:19.022Z,51.93
2023-02-15T16:52:04.237Z,52.29
2023-02-15T16:54:38.752Z,52.47
2023-02-15T16:57:25.845Z,52.74
2023-02-15T16:59:57.499Z,52.75
2023-02-15T17:02:55.955Z,52.74
2023-02-15T17:05:45.658Z,52.94
2023-02-15T17:08:25.126Z,53.13
2023-02-15T17:11:05.251Z,52.89
2023-02-15T17:13:32.798Z,53.41
2023-02-15T17:15:59.761Z,53.49
2023-02-15T17:18:59.636Z,54.13
2023-02-15T17:21:34.200Z,54.58
2023-02-15T17:24:05.325Z,54.29
2023-02-15T17:26:35.295Z,54.20
2023-02-15T17:29:12.722Z,54.17
2023-02-15T17:31:40.263Z,55.01
2023-02-15T17:34:07.300Z,54.73
2023-02-15T17:36:34.311Z,54.80
2023-02-15T17:39:21.120Z,54.92
2023-02-15T17:41:49.272Z,55.03
2023-02-15T17:44:17.294Z,55.28
2023-02-15T17:46:44.891Z,55.06
2023-02-15T17:49:34.984Z,55.43
2023-02-15T17:52:02.859Z,55.90
2023-02-15T17:54:48.654Z,55.20
2023-02-15T17:57:16.808Z,56.05
2023-02-15T18:00:02.353Z,56.55
2023-02-15T18:02:58.707Z,56.42
2023-02-15T18:05:44.302Z,56.21
2023-02-15T18:08:35.206Z,56.54
2023-02-15T18:11:21.307Z,56.45
2023-02-15T18:13:48.770Z,56.86
2023-02-15T18:16:20.571Z,57.19
2023-02-15T18:18:47.680Z,57.10
2023-02-15T18:21:15.090Z,57.13
2023-02-15T18:23:42.797Z,56.99
2023-02-15T18:26:17.463Z,57.36
2023-02-15T18:28:44.520Z,57.12
2023-02-15T18:31:12.931Z,57.69
2023-02-15T18:33:47.488Z,57.31
2023-02-15T18:36:21.665Z,57.72
2023-02-15T18:38:49.321Z,57.31
2023-02-15T18:41:20.910Z,57.74
2023-02-15T18:43:52.642Z,57.37
2023-02-15T18:46:19.921Z,57.26
2023-02-15T18:48:46.852Z,57.13
2023-02-15T18:51:22.322Z,57.16
2023-02-15T18:53:52.808Z,57.30
2023-02-15T18:56:22.681Z,58.04
2023-02-15T18:58:50.248Z,57.64
2023-02-15T19:01:20.314Z,57.81
2023-02-15T19:03:49.039Z,58.05
2023-02-15T19:06:18.442Z,57.94
2023-02-15T19:08:48.522Z,58.06
2023-02-15T19:11:23.358Z,58.12
2023-02-15T19:13:52.306Z,58.01
2023-02-15T19:16:35.847Z,58.01
2023-02-15T19:19:02.887Z,57.80
2023-02-15T19:21:32.067Z,57.77
2023-02-15T19:24:05.545Z,57.99
2023-02-15T19:26:44.843Z,58.06
2023-02-15T19:29:15.022Z,57.77
2023-02-15T19:31:42.622Z,57.93
2023-02-15T19:34:16.410Z,58.20
2023-02-15T19:36:46.325Z,58.13
2023-02-15T19:39:38.695Z,57.99
2023-02-15T19:42:06.037Z,57.92
2023-02-15T19:44:33.225Z,58.02
2023-02-15T19:47:00.192Z,58.03
2023-02-15T19:49:27.246Z,58.30
2023-02-15T19:51:54.375Z,58.32
2023-02-15T19:54:31.891Z,58.38
2023-02-15T19:56:59.075Z,58.89
2023-02-15T19:59:32.526Z,59.09
2023-02-15T20:02:00.011Z,59.60
2023-02-15T20:04:27.478Z,59.45
2023-02-15T20:07:00.788Z,59.53
2023-02-15T20:09:38.004Z,59.06
2023-02-15T20:12:05.115Z,59.82
2023-02-15T20:14:32.210Z,60.01
2023-02-15T20:16:59.257Z,60.84
2023-02-15T20:19:26.348Z,60.99
2023-02-15T20:21:59.619Z,60.99
2023-02-15T20:24:28.997Z,60.70
2023-02-15T20:26:55.995Z,60.39
2023-02-15T20:29:23.126Z,60.73
2023-02-15T20:31:51.355Z,60.62
2023-02-15T20:34:19.405Z,60.28
2023-02-15T20:36:46.403Z,60.44
2023-02-15T20:39:16.580Z,60.30
2023-02-15T20:41:48.212Z,60.36
2023-02-15T20:44:17.986Z,60.09
2023-02-15T20:46:45.058Z,60.81
2023-02-15T20:49:12.267Z,60.45
2023-02-15T20:51:41.523Z,60.06
2023-02-15T20:54:22.720Z,61.37
2023-02-15T20:56:49.820Z,61.05
2023-02-15T20:59:24.635Z,60.94
2023-02-15T21:02:03.577Z,60.67
2023-02-15T21:04:33.840Z,60.30
2023-02-15T21:07:01.669Z,60.31
2023-02-15T21:09:30.123Z,60.77
2023-02-15T21:12:00.339Z,60.48
2023-02-15T21:14:29.709Z,60.21
2023-02-15T21:16:58.971Z,60.33
2023-02-15T21:19:26.325Z,60.57
2023-02-15T21:21:54.623Z,60.81
2023-02-15T21:24:29.517Z,61.12
2023-02-15T21:27:01.894Z,60.82
2023-02-15T21:29:30.627Z,61.32
2023-02-15T21:32:00.703Z,61.35
2023-02-15T21:34:28.139Z,61.16
2023-02-15T21:36:55.856Z,60.99
2023-02-15T21:39:26.734Z,60.96
2023-02-15T21:42:15.034Z,60.48
2023-02-15T21:45:01.242Z,60.62
2023-02-15T21:47:49.398Z,60.80
2023-02-15T21:50:40.096Z,60.65
2023-02-15T21:53:13.105Z,60.84
2023-02-15T21:55:40.701Z,60.86
2023-02-15T21:58:22.418Z,60.74
2023-02-15T22:00:51.642Z,60.74
2023-02-15T22:03:20.143Z,60.65
2023-02-15T22:05:47.601Z,60.86
2023-02-15T22:08:15.694Z,60.51
2023-02-15T22:10:44.534Z,60.23
2023-02-15T22:13:28.909Z,61.05
2023-02-15T22:15:57.371Z,60.57
2023-02-15T22:18:34.597Z,60.77
2023-02-15T22:21:04.309Z,60.81
2023-02-15T22:23:32.039Z,60.48
2023-02-15T22:26:08.447Z,60.31
2023-02-15T22:28:39.847Z,60.19
2023-02-15T22:31:15.053Z,60.08
2023-02-15T22:33:44.964Z,59.95
2023-02-15T22:36:25.011Z,59.58
2023-02-15T22:38:52.505Z,59.91
2023-02-15T22:41:20.462Z,59.40
2023-02-15T22:43:48.190Z,59.68
2023-02-15T22:46:18.025Z,59.65
2023-02-15T22:48:46.461Z,60.17
2023-02-15T22:51:15.723Z,59.93
2023-02-15T22:53:42.740Z,60.37
2023-02-15T22:56:17.355Z,59.92
2023-02-15T22:58:45.200Z,59.89
2023-02-15T23:01:24.869Z,59.99
2023-02-15T23:03:52.056Z,60.16
2023-02-15T23:06:18.978Z,59.95
2023-02-15T23:08:46.135Z,60.86
2023-02-15T23:11:13.119Z,61.10
2023-02-15T23:13:40.319Z,60.65
2023-02-15T23:16:13.511Z,60.41
2023-02-15T23:18:42.931Z,60.50
2023-02-15T23:21:15.629Z,60.35
2023-02-15T23:23:44.859Z,60.13
2023-02-15T23:26:32.909Z,59.88
2023-02-15T23:29:01.888Z,59.74
2023-02-15T23:31:32.261Z,59.94
2023-02-15T23:34:12.710Z,60.35
2023-02-15T23:36:40.162Z,60.17
2023-02-15T23:39:37.482Z,59.95
2023-02-15T23:42:10.250Z,59.89
2023-02-15T23:44:38.669Z,59.67
2023-02-15T23:47:07.223Z,59.82
2023-02-15T23:49:34.247Z,60.10
2023-02-15T23:52:02.090Z,59.87
2023-02-15T23:54:29.589Z,60.24
2023-02-15T23:57:01.592Z,59.84
2023-02-15T23:59:31.740Z,60.21
